createdAt,value
2023-02-19T00:52:39.668Z,7.78
2023-02-19T00:57:40.926Z,9.65
2023-02-19T01:02:42.179Z,9.53
2023-02-19T01:07:43.341Z,8.51
2023-02-19T01:12:44.602Z,7.92
2023-02-19T01:17:45.905Z,7.94
2023-02-19T01:22:47.107Z,7.63
2023-02-19T01:27:48.377Z,7.69
2023-02-19T01:32:49.585Z,7.52
2023-02-19T01:37:50.850Z,7.47
2023-02-19T01:48:02.365Z,7.51
2023-02-19T01:53:06.621Z,7.4
2023-02-19T01:58:09.828Z,7.66
2023-02-19T02:03:12.081Z,7.67
2023-02-19T02:08:12.309Z,7.87
2023-02-19T02:13:13.581Z,7.7
2023-02-19T02:18:26.764Z,7.36
2023-02-19T02:23:38.020Z,7.27
2023-02-19T02:28:53.208Z,7.05
2023-02-19T02:34:01.434Z,7.06
2023-02-19T02:39:06.665Z,6.99
2023-02-19T02:44:07.920Z,7.25
2023-02-19T02:49:14.136Z,7.05
2023-02-19T02:54:20.358Z,6.92
2023-02-19T02:59:23.662Z,7.24
2023-02-19T03:04:32.848Z,7.8
2023-02-19T03:09:41.098Z,8
2023-02-19T03:14:48.339Z,7.96
2023-02-19T03:19:54.543Z,8.06
2023-02-19T03:24:59.789Z,8.21
2023-02-19T03:30:08.059Z,8.28
2023-02-19T03:35:13.236Z,8.35
2023-02-19T03:40:14.525Z,8.45
2023-02-19T03:45:23.716Z,8.41
2023-02-19T03:50:30.976Z,8.52
2023-02-19T03:55:40.188Z,8.44
2023-02-19T04:00:44.473Z,8.37
2023-02-19T04:05:50.686Z,8.51
2023-02-19T04:10:53.932Z,8.33
2023-02-19T04:16:01.150Z,8.37
2023-02-19T04:21:07.423Z,8.28
2023-02-19T04:26:09.645Z,8.28
2023-02-19T04:31:11.259Z,8.17
2023-02-19T04:36:13.100Z,8.21
2023-02-19T04:46:19.654Z,8.07
2023-02-19T04:56:26.091Z,8.05
2023-02-19T05:01:26.359Z,8.12
2023-02-19T05:06:27.620Z,8.08
2023-02-19T05:11:28.822Z,8.07
2023-02-19T05:16:31.110Z,8.2
2023-02-19T05:21:32.314Z,8.24
2023-02-19T05:26:36.562Z,8
2023-02-19T05:31:39.944Z,7.94
2023-02-19T05:36:42.044Z,7.89
2023-02-19T05:41:44.283Z,7.8
2023-02-19T05:46:45.619Z,7.93
2023-02-19T05:51:49.761Z,7.98
2023-02-19T05:56:56.028Z,7.9
2023-02-19T06:01:58.253Z,7.94
2023-02-19T06:06:58.495Z,8.03
2023-02-19T06:12:00.713Z,7.98
2023-02-19T06:17:02.015Z,7.92
2023-02-19T06:27:08.529Z,8.15
2023-02-19T06:32:09.803Z,8.21
2023-02-19T06:37:10.986Z,9.02
2023-02-19T06:42:12.232Z,9.07
2023-02-19T06:47:13.487Z,8.69
2023-02-19T06:57:19.929Z,9
2023-02-19T07:07:26.409Z,9.33
2023-02-19T07:12:27.657Z,9.8
2023-02-19T07:17:28.917Z,9.96
2023-02-19T07:22:30.174Z,9.93
2023-02-19T07:27:31.412Z,10.02
2023-02-19T07:32:32.668Z,10.09
2023-02-19T07:37:33.921Z,10.27
2023-02-19T07:47:40.468Z,10.62
2023-02-19T07:52:41.640Z,10.91
2023-02-19T08:02:48.146Z,11.68
2023-02-19T08:07:49.381Z,11.67
2023-02-19T08:12:55.593Z,11.77
2023-02-19T08:17:56.874Z,11.56
2023-02-19T08:28:03.374Z,11.62
2023-02-19T08:38:10.836Z,11.49
2023-02-19T08:43:13.121Z,11.22
2023-02-19T08:48:14.310Z,11.19
2023-02-19T08:53:15.557Z,10.99
2023-02-19T09:03:22.078Z,11
2023-02-19T09:08:23.341Z,10.99
2023-02-19T09:18:29.756Z,11.25
2023-02-19T09:23:33.027Z,11.49
2023-02-19T09:28:34.316Z,11.88
2023-02-19T09:33:36.523Z,12.13
2023-02-19T09:43:47.004Z,12.6
2023-02-19T09:48:48.247Z,12.97
2023-02-19T09:53:53.460Z,13.07
2023-02-19T09:58:57.754Z,13.18
2023-02-19T10:03:59.946Z,13.24
2023-02-19T10:09:11.166Z,13.18
2023-02-19T10:14:15.436Z,13.21
2023-02-19T10:19:17.634Z,13.09
2023-02-19T10:24:23.938Z,12.94
2023-02-19T10:29:25.177Z,12.82
2023-02-19T10:34:27.365Z,12.86
2023-02-19T10:39:36.600Z,12.81
2023-02-19T10:44:43.868Z,12.75
2023-02-19T10:49:53.054Z,12.67
2023-02-19T10:55:02.329Z,12.68
2023-02-19T11:00:07.542Z,12.62
2023-02-19T11:05:16.759Z,12.71
2023-02-19T11:10:24.966Z,12.69
2023-02-19T11:15:28.225Z,12.84
2023-02-19T11:20:30.499Z,12.82
2023-02-19T11:25:34.745Z,13.01
2023-02-19T11:30:42.035Z,13.01
2023-02-19T11:35:48.193Z,13.17
2023-02-19T11:46:06.616Z,13.57
2023-02-19T11:51:18.848Z,13.43
2023-02-19T11:56:31.081Z,13.27
2023-02-19T12:01:46.377Z,13.08
2023-02-19T12:06:55.531Z,12.69
2023-02-19T12:12:05.698Z,12.65
2023-02-19T12:17:14.306Z,12.69
2023-02-19T12:22:28.194Z,13.31
2023-02-19T12:27:43.422Z,14.95
2023-02-19T12:32:57.593Z,15.2
2023-02-19T12:38:09.815Z,15.43
2023-02-19T12:43:18.057Z,14.9
2023-02-19T12:48:28.275Z,15.6
2023-02-19T12:53:37.541Z,15.86
2023-02-19T12:58:44.783Z,16.39
2023-02-19T13:03:49.990Z,16.18
2023-02-19T13:09:06.253Z,15.93
2023-02-19T13:14:11.408Z,15.35
2023-02-19T13:19:14.647Z,15.12
2023-02-19T13:24:16.925Z,16.89
2023-02-19T13:29:34.118Z,16.59
2023-02-19T13:34:46.346Z,17.03
2023-02-19T13:39:49.590Z,16.46
2023-02-19T13:44:55.837Z,16.84
2023-02-19T13:50:05.050Z,17.15
2023-02-19T13:55:11.291Z,16.75
2023-02-19T14:00:16.527Z,16.07
2023-02-19T14:10:33.989Z,17.87
2023-02-19T14:15:49.265Z,18.64
2023-02-19T14:21:04.395Z,18.75
2023-02-19T14:26:07.635Z,19.29
2023-02-19T14:31:18.447Z,19.67
2023-02-19T14:36:31.085Z,20.27
2023-02-19T14:41:33.317Z,19.19
2023-02-19T14:46:38.651Z,18.75
2023-02-19T14:51:45.823Z,19.08
2023-02-19T14:56:52.044Z,19.17
2023-02-19T15:01:59.261Z,19.48
2023-02-19T15:07:01.508Z,17.94
2023-02-19T15:12:03.754Z,19.1
2023-02-19T15:17:05.985Z,17.06
2023-02-19T15:22:11.231Z,18.34
2023-02-19T15:27:17.476Z,16.86
2023-02-19T15:32:19.769Z,15.1
2023-02-19T15:37:22.944Z,14.56
2023-02-19T15:42:26.235Z,14.61
2023-02-19T15:47:25.461Z,15.85
2023-02-19T15:52:29.710Z,13.95
2023-02-19T15:57:30.952Z,13.04
2023-02-19T16:02:27.791Z,12.78
2023-02-19T16:07:27.418Z,12.54
2023-02-19T16:12:24.703Z,12.29
2023-02-19T16:17:22.983Z,12.26
2023-02-19T16:22:20.222Z,11.98
2023-02-19T16:27:21.472Z,11.91
2023-02-19T16:32:22.873Z,11.67
2023-02-19T16:37:28.971Z,11.41
2023-02-19T16:42:43.166Z,11.41
2023-02-19T16:47:44.397Z,11.3
2023-02-19T16:52:50.691Z,11.25
2023-02-19T16:57:46.900Z,10.97
2023-02-19T17:02:49.168Z,10.7
2023-02-19T17:07:47.418Z,10.73
2023-02-19T17:12:44.689Z,10.68
2023-02-19T17:17:40.922Z,10.63
2023-02-19T17:22:36.210Z,10.43
2023-02-19T17:27:32.424Z,10.63
2023-02-19T17:32:28.848Z,10.61
2023-02-19T17:37:24.968Z,10.55
2023-02-19T17:42:21.260Z,10.6
2023-02-19T17:47:17.480Z,10.67
2023-02-19T17:52:13.748Z,10.49
2023-02-19T17:57:10.021Z,10.62
2023-02-19T18:02:06.290Z,10.69
2023-02-19T18:07:02.518Z,10.66
2023-02-19T18:11:58.806Z,10.93
2023-02-19T18:16:55.125Z,10.41
2023-02-19T18:21:51.286Z,10.67
2023-02-19T18:26:49.575Z,10.63
2023-02-19T18:31:45.911Z,10.63
2023-02-19T18:36:44.092Z,9.97
2023-02-19T18:41:46.291Z,10.02
2023-02-19T18:46:42.587Z,10.28
2023-02-19T18:51:40.851Z,10.13
2023-02-19T18:56:41.105Z,9.62
2023-02-19T19:01:37.360Z,9.4
2023-02-19T19:06:40.581Z,9.65
2023-02-19T19:11:36.837Z,9.25
2023-02-19T19:16:33.123Z,9.44
2023-02-19T19:21:29.368Z,9.59
2023-02-19T19:26:25.624Z,9.73
2023-02-19T19:31:22.048Z,9.81
2023-02-19T19:36:19.148Z,9.73
2023-02-19T19:41:15.402Z,9.99
2023-02-19T19:46:11.800Z,10.02
2023-02-19T19:51:07.920Z,9.98
2023-02-19T19:56:04.180Z,9.9
2023-02-19T20:01:00.444Z,9.74
2023-02-19T20:05:56.727Z,9.74
2023-02-19T20:10:52.930Z,9.86
2023-02-19T20:15:51.277Z,9.88
2023-02-19T20:20:48.458Z,9.75
2023-02-19T20:25:44.740Z,9.53
2023-02-19T20:30:43.039Z,9.41
2023-02-19T20:35:39.252Z,9.36
2023-02-19T20:40:36.520Z,9.21
2023-02-19T20:45:31.797Z,9.18
2023-02-19T20:50:28.054Z,9.19
2023-02-19T20:55:25.284Z,9
2023-02-19T21:00:20.613Z,8.78
2023-02-19T21:05:16.815Z,8.86
2023-02-19T21:10:13.048Z,8.67
2023-02-19T21:15:09.315Z,8.41
2023-02-19T21:20:06.611Z,8.29
2023-02-19T21:25:02.853Z,8.2
2023-02-19T21:29:59.117Z,8.19
2023-02-19T21:34:56.371Z,8.1
2023-02-19T21:39:53.657Z,7.93
2023-02-19T21:44:49.874Z,7.87
2023-02-19T21:49:46.138Z,7.73
2023-02-19T21:54:45.372Z,7.73
2023-02-19T21:59:41.610Z,7.98
2023-02-19T22:04:37.869Z,8.01
2023-02-19T22:09:34.155Z,7.77
2023-02-19T22:14:30.435Z,7.7
2023-02-19T22:19:26.647Z,7.52
2023-02-19T22:24:22.974Z,7.66
2023-02-19T22:29:19.234Z,7.77
2023-02-19T22:34:14.450Z,7.7
2023-02-19T22:39:14.706Z,7.72
2023-02-19T22:44:10.951Z,7.5
2023-02-19T22:49:07.271Z,7.49
2023-02-19T22:54:03.507Z,7.44
2023-02-19T22:58:59.732Z,7.34
2023-02-19T23:03:57.149Z,7.31
2023-02-19T23:08:52.304Z,7.24
2023-02-19T23:13:47.516Z,7.23
2023-02-19T23:18:43.765Z,7.33
2023-02-19T23:23:40.033Z,7.28
2023-02-19T23:28:35.345Z,7.22
2023-02-19T23:33:31.601Z,6.99
2023-02-19T23:38:27.869Z,6.81
2023-02-19T23:43:24.094Z,6.87
2023-02-19T23:48:20.366Z,6.77
2023-02-19T23:53:16.611Z,7.18
2023-02-19T23:58:12.835Z,6.77
